createdAt,value
2018-11-05T00:00:29.107Z,7.03
2018-11-05T00:01:29.085Z,6.84
2018-11-05T00:02:28.801Z,6.46
2018-11-05T00:03:28.782Z,6.65
2018-11-05T00:04:28.764Z,6.08
2018-11-05T00:05:29.005Z,6.36
2018-11-05T00:06:28.722Z,6.17
2018-11-05T00:07:28.966Z,6.27
2018-11-05T00:08:28.956Z,6.17
2018-11-05T00:09:28.942Z,6.27
2018-11-05T00:10:28.643Z,6.17
2018-11-05T00:11:28.626Z,6.27
2018-11-05T00:12:28.873Z,6.26
2018-11-05T00:13:28.859Z,6.27
2018-11-05T00:14:28.843Z,6.36
2018-11-05T00:15:28.816Z,6.17
2018-11-05T00:16:28.793Z,6.07
2018-11-05T00:17:28.517Z,6.64
2018-11-05T00:18:28.506Z,6.07
2018-11-05T00:19:28.682Z,6.74
2018-11-05T00:20:28.458Z,6.55
2018-11-05T00:21:28.703Z,6.55
2018-11-05T00:22:28.686Z,6.55
2018-11-05T00:23:28.663Z,6.55
2018-11-05T00:24:28.643Z,6.55
2018-11-05T00:25:28.365Z,6.64
2018-11-05T00:26:28.609Z,6.64
2018-11-05T00:27:28.326Z,6.64
2018-11-05T00:28:28.303Z,6.64
2018-11-05T00:29:28.553Z,6.64
2018-11-05T00:30:28.275Z,6.64
2018-11-05T00:31:28.512Z,6.45
2018-11-05T00:32:28.499Z,6.64
2018-11-05T00:33:28.206Z,6.45
2018-11-05T00:34:28.457Z,6.55
2018-11-05T00:35:28.435Z,6.26
2018-11-05T00:36:28.415Z,6.26
2018-11-05T00:37:28.135Z,6.45
2018-11-05T00:38:28.376Z,5.79
2018-11-05T00:39:28.355Z,6.07
2018-11-05T00:40:28.076Z,5.88
2018-11-05T00:41:28.322Z,5.6
2018-11-05T00:42:28.048Z,5.88
2018-11-05T00:43:28.020Z,5.79
2018-11-05T00:44:28.270Z,5.98
2018-11-05T00:45:28.339Z,5.98
2018-11-05T00:46:28.224Z,5.88
2018-11-05T00:47:28.210Z,5.88
2018-11-05T00:48:28.189Z,5.6
2018-11-05T00:49:27.903Z,5.51
2018-11-05T00:50:28.148Z,5.6
2018-11-05T00:51:28.130Z,5.6
2018-11-05T00:52:27.848Z,5.79
2018-11-05T00:53:28.091Z,5.6
2018-11-05T00:54:28.071Z,5.22
2018-11-05T00:55:28.052Z,5.6
2018-11-05T00:56:28.170Z,5.6
2018-11-05T00:57:28.013Z,5.6
2018-11-05T00:58:28.003Z,5.69
2018-11-05T00:59:27.714Z,5.79
2018-11-05T01:00:27.694Z,5.79
2018-11-05T01:01:27.936Z,5.98
2018-11-05T01:02:27.917Z,5.98
2018-11-05T01:03:27.638Z,5.79
2018-11-05T01:04:27.885Z,5.88
2018-11-05T01:05:27.859Z,5.51
2018-11-05T01:06:27.842Z,5.41
2018-11-05T01:07:27.561Z,5.32
2018-11-05T01:08:27.808Z,5.41
2018-11-05T01:09:27.786Z,5.03
2018-11-05T01:10:27.771Z,5.12
2018-11-05T01:11:27.743Z,5.03
2018-11-05T01:12:27.736Z,4.93
2018-11-05T01:13:27.445Z,4.93
2018-11-05T01:14:27.422Z,4.65
2018-11-05T01:15:27.672Z,4.65
2018-11-05T01:16:27.677Z,4.93
2018-11-05T01:17:27.372Z,4.84
2018-11-05T01:18:27.610Z,4.84
2018-11-05T01:19:27.589Z,4.84
2018-11-05T01:20:27.308Z,4.74
2018-11-05T01:21:27.552Z,4.84
2018-11-05T01:22:27.268Z,4.65
2018-11-05T01:23:27.516Z,4.93
2018-11-05T01:24:27.230Z,4.65
2018-11-05T01:25:27.478Z,4.55
2018-11-05T01:26:27.458Z,4.46
2018-11-05T01:27:27.175Z,4.46
2018-11-05T01:28:27.153Z,4.65
2018-11-05T01:29:27.131Z,4.74
2018-11-05T01:30:27.388Z,4.74
2018-11-05T01:31:27.099Z,4.55
2018-11-05T01:32:27.342Z,4.55
2018-11-05T01:33:27.060Z,4.27
2018-11-05T01:34:27.043Z,4.27
2018-11-05T01:35:27.279Z,4.17
2018-11-05T01:36:27.263Z,4.08
2018-11-05T01:37:27.245Z,4.36
2018-11-05T01:38:26.967Z,4.36
2018-11-05T01:39:26.941Z,4.46
2018-11-05T01:40:27.183Z,4.36
2018-11-05T01:41:27.177Z,4.27
2018-11-05T01:42:27.151Z,4.27
2018-11-05T01:43:26.865Z,4.36
2018-11-05T01:44:26.846Z,4.36
2018-11-05T01:45:27.091Z,4.27
2018-11-05T01:46:26.807Z,4.55
2018-11-05T01:47:26.799Z,4.17
2018-11-05T01:48:27.040Z,4.17
2018-11-05T01:49:27.016Z,4.17
2018-11-05T01:50:26.732Z,3.89
2018-11-05T01:51:26.979Z,3.89
2018-11-05T01:52:26.699Z,3.8
2018-11-05T01:53:26.940Z,4.27
2018-11-05T01:54:26.651Z,3.89
2018-11-05T01:55:26.637Z,3.99
2018-11-05T01:56:26.615Z,3.99
2018-11-05T01:57:26.862Z,4.17
2018-11-05T01:58:26.838Z,3.7
2018-11-05T01:59:26.822Z,3.8
2018-11-05T02:00:26.808Z,3.61
2018-11-05T02:01:26.518Z,3.89
2018-11-05T02:02:26.765Z,3.8
2018-11-05T02:03:26.750Z,3.7
2018-11-05T02:04:26.462Z,3.61
2018-11-05T02:05:26.703Z,3.61
2018-11-05T02:06:26.690Z,3.7
2018-11-05T02:07:26.667Z,3.8
2018-11-05T02:08:26.389Z,3.8
2018-11-05T02:09:26.625Z,3.7
2018-11-05T02:10:26.871Z,3.7
2018-11-05T02:11:26.326Z,3.8
2018-11-05T02:12:26.579Z,3.8
2018-11-05T02:13:26.757Z,3.61
2018-11-05T02:14:26.273Z,3.41
2018-11-05T02:15:26.246Z,3.41
2018-11-05T02:16:26.494Z,3.51
2018-11-05T02:17:26.208Z,3.13
2018-11-05T02:18:26.194Z,3.13
2018-11-05T02:19:26.637Z,2.94
2018-11-05T02:20:26.422Z,3.32
2018-11-05T02:21:26.396Z,3.32
2018-11-05T02:22:26.120Z,3.32
2018-11-05T02:23:26.358Z,2.94
2018-11-05T02:24:26.341Z,3.22
2018-11-05T02:25:26.319Z,2.75
2018-11-05T02:26:26.304Z,3.03
2018-11-05T02:27:26.643Z,2.94
2018-11-05T02:28:26.266Z,2.75
2018-11-05T02:29:26.250Z,2.66
2018-11-05T02:30:26.224Z,2.47
2018-11-05T02:31:26.203Z,2.66
2018-11-05T02:32:26.182Z,2.66
2018-11-05T02:33:26.172Z,2.66
2018-11-05T02:34:26.149Z,2.66
2018-11-05T02:35:26.130Z,2.56
2018-11-05T02:36:25.855Z,2.66
2018-11-05T02:37:25.835Z,2.66
2018-11-05T02:38:26.087Z,2.56
2018-11-05T02:39:26.052Z,2.09
2018-11-05T02:40:26.039Z,2.28
2018-11-05T02:41:25.748Z,2.28
2018-11-05T02:42:26.000Z,1.99
2018-11-05T02:43:25.709Z,2.18
2018-11-05T02:44:25.697Z,2.09
2018-11-05T02:45:25.940Z,2.18
2018-11-05T02:46:25.920Z,2.28
2018-11-05T02:47:25.906Z,2.18
2018-11-05T02:48:25.616Z,2.18
2018-11-05T02:49:25.864Z,1.61
2018-11-05T02:50:25.582Z,1.9
2018-11-05T02:51:25.821Z,1.8
2018-11-05T02:52:25.804Z,2.09
2018-11-05T02:53:25.790Z,1.61
2018-11-05T02:54:25.766Z,1.9
2018-11-05T02:55:25.750Z,1.9
2018-11-05T02:56:25.726Z,1.99
2018-11-05T02:57:25.714Z,2.09
2018-11-05T02:58:25.426Z,1.99
2018-11-05T02:59:25.410Z,1.99
2018-11-05T03:00:25.656Z,2.09
2018-11-05T03:01:25.629Z,1.99
2018-11-05T03:02:25.611Z,2.09
2018-11-05T03:03:25.748Z,1.9
2018-11-05T03:04:25.574Z,1.8
2018-11-05T03:05:25.570Z,1.71
2018-11-05T03:06:25.542Z,1.52
2018-11-05T03:07:25.250Z,1.61
2018-11-05T03:08:25.500Z,1.8
2018-11-05T03:09:25.476Z,1.9
2018-11-05T03:10:25.198Z,1.61
2018-11-05T03:11:25.444Z,1.8
2018-11-05T03:12:25.163Z,1.9
2018-11-05T03:13:25.408Z,1.61
2018-11-05T03:14:25.384Z,1.71
2018-11-05T03:15:25.364Z,1.52
2018-11-05T03:16:25.083Z,1.52
2018-11-05T03:17:25.331Z,1.7
2018-11-05T03:18:25.043Z,1.61
2018-11-05T03:19:25.298Z,1.7
2018-11-05T03:20:25.010Z,1.7
2018-11-05T03:21:25.251Z,1.61
2018-11-05T03:22:24.971Z,1.7
2018-11-05T03:23:24.943Z,1.61
2018-11-05T03:24:24.933Z,1.42
2018-11-05T03:25:25.186Z,1.32
2018-11-05T03:26:25.155Z,1.61
2018-11-05T03:27:25.149Z,1.51
2018-11-05T03:28:25.119Z,1.51
2018-11-05T03:29:24.833Z,1.52
2018-11-05T03:30:25.086Z,1.51
2018-11-05T03:31:25.062Z,1.71
2018-11-05T03:32:25.040Z,1.51
2018-11-05T03:33:25.032Z,1.32
2018-11-05T03:34:24.737Z,1.32
2018-11-05T03:35:24.717Z,1.14
2018-11-05T03:36:24.964Z,1.14
2018-11-05T03:37:24.944Z,1.23
2018-11-05T03:38:24.666Z,1.14
2018-11-05T03:39:24.916Z,1.32
2018-11-05T03:40:24.895Z,1.23
2018-11-05T03:41:24.961Z,1.23
2018-11-05T03:42:24.646Z,1.32
2018-11-05T03:43:24.923Z,1.14
2018-11-05T03:44:25.056Z,1.32
2018-11-05T03:45:24.892Z,1.32
2018-11-05T03:46:24.625Z,1.23
2018-11-05T03:47:24.836Z,1.23
2018-11-05T03:48:24.913Z,1.32
2018-11-05T03:49:24.451Z,1.23
2018-11-05T03:50:24.434Z,1.42
2018-11-05T03:51:24.417Z,1.14
2018-11-05T03:52:24.662Z,0.95
2018-11-05T03:53:24.379Z,0.95
2018-11-05T03:54:24.620Z,0.95
2018-11-05T03:55:24.708Z,0.85
2018-11-05T03:56:24.860Z,0.85
2018-11-05T03:57:24.570Z,1.04
2018-11-05T03:58:24.275Z,0.95
2018-11-05T03:59:24.259Z,1.04
2018-11-05T04:00:24.512Z,0.95
2018-11-05T04:01:24.489Z,0.95
2018-11-05T04:02:24.469Z,1.14
2018-11-05T04:03:24.505Z,1.14
2018-11-05T04:04:24.267Z,1.14
2018-11-05T04:05:24.340Z,1.04
2018-11-05T04:06:24.746Z,1.04
2018-11-05T04:07:24.113Z,0.95
2018-11-05T04:08:24.601Z,0.95
2018-11-05T04:09:24.494Z,1.04
2018-11-05T04:10:24.058Z,1.04
2018-11-05T04:11:24.040Z,1.14
2018-11-05T04:12:24.019Z,1.04
2018-11-05T04:13:24.265Z,1.04
2018-11-05T04:14:23.975Z,0.95
2018-11-05T04:15:24.455Z,0.85
2018-11-05T04:16:23.936Z,0.85
2018-11-05T04:17:23.922Z,1.14
2018-11-05T04:18:24.170Z,0.57
2018-11-05T04:19:24.354Z,0.76
2018-11-05T04:20:23.860Z,0.76
2018-11-05T04:21:24.111Z,0.85
2018-11-05T04:22:24.094Z,0.95
2018-11-05T04:23:24.074Z,0.95
2018-11-05T04:24:23.792Z,0.57
2018-11-05T04:25:24.029Z,0.57
2018-11-05T04:26:24.016Z,0.47
2018-11-05T04:27:23.997Z,0.47
2018-11-05T04:28:23.974Z,0.66
2018-11-05T04:29:23.973Z,0.66
2018-11-05T04:30:23.934Z,0.47
2018-11-05T04:31:23.649Z,0.66
2018-11-05T04:32:23.900Z,0.47
2018-11-05T04:33:23.884Z,0.76
2018-11-05T04:34:23.869Z,0.66
2018-11-05T04:35:23.580Z,0.38
2018-11-05T04:36:23.559Z,0.66
2018-11-05T04:37:23.816Z,0.47
2018-11-05T04:38:23.787Z,0.38
2018-11-05T04:39:23.502Z,0.38
2018-11-05T04:40:23.746Z,0.38
2018-11-05T04:41:23.726Z,0.47
2018-11-05T04:42:23.716Z,0.47
2018-11-05T04:43:23.697Z,0.47
2018-11-05T04:44:23.685Z,0.38
2018-11-05T04:45:23.654Z,0.57
2018-11-05T04:46:23.635Z,0.38
2018-11-05T04:47:23.352Z,0.28
2018-11-05T04:48:23.599Z,0.66
2018-11-05T04:49:23.327Z,0.76
2018-11-05T04:50:23.556Z,0.47
2018-11-05T04:51:23.548Z,0.57
2018-11-05T04:52:23.524Z,0.66
2018-11-05T04:53:23.240Z,0.76
2018-11-05T04:54:23.485Z,0.57
2018-11-05T04:55:23.468Z,0.47
2018-11-05T04:56:23.448Z,0.57
2018-11-05T04:57:23.425Z,0.47
2018-11-05T04:58:23.143Z,0.47
2018-11-05T04:59:23.390Z,0.47
2018-11-05T05:00:23.106Z,0.47
2018-11-05T05:01:23.351Z,1.04
2018-11-05T05:02:23.074Z,0.85
2018-11-05T05:03:23.132Z,0.85
2018-11-05T05:04:23.291Z,0.85
2018-11-05T05:05:23.284Z,0.85
2018-11-05T05:06:22.994Z,0.57
2018-11-05T05:07:23.237Z,0.76
2018-11-05T05:08:23.219Z,0.76
2018-11-05T05:09:22.936Z,1.23
2018-11-05T05:10:23.190Z,0.95
2018-11-05T05:11:22.889Z,0.95
2018-11-05T05:12:22.879Z,0.95
2018-11-05T05:13:22.866Z,0.95
2018-11-05T05:14:23.106Z,1.14
2018-11-05T05:15:23.083Z,0.95
2018-11-05T05:16:22.894Z,1.04
2018-11-05T05:17:22.784Z,0.95
2018-11-05T05:18:23.030Z,0.95
2018-11-05T05:19:23.016Z,0.85
2018-11-05T05:20:22.725Z,1.32
2018-11-05T05:21:22.968Z,1.32
2018-11-05T05:22:23.074Z,1.42
2018-11-05T05:23:22.948Z,1.32
2018-11-05T05:24:22.913Z,1.32
2018-11-05T05:25:22.632Z,1.32
2018-11-05T05:26:22.893Z,1.14
2018-11-05T05:27:22.853Z,1.23
2018-11-05T05:28:22.572Z,1.14
2018-11-05T05:29:22.822Z,1.51
2018-11-05T05:30:22.534Z,1.23
2018-11-05T05:31:22.775Z,1.32
2018-11-05T05:32:22.496Z,1.51
2018-11-05T05:33:22.874Z,1.51
2018-11-05T05:34:22.459Z,1.42
2018-11-05T05:35:22.441Z,1.61
2018-11-05T05:36:22.418Z,1.51
2018-11-05T05:37:22.400Z,1.8
2018-11-05T05:38:22.649Z,1.7
2018-11-05T05:39:22.359Z,1.8
2018-11-05T05:40:22.345Z,1.9
2018-11-05T05:41:22.740Z,2.18
2018-11-05T05:42:22.569Z,1.99
2018-11-05T05:43:22.552Z,1.7
2018-11-05T05:44:22.265Z,2.18
2018-11-05T05:45:22.243Z,1.99
2018-11-05T05:46:22.494Z,2.18
2018-11-05T05:47:22.209Z,2.09
2018-11-05T05:48:22.455Z,1.99
2018-11-05T05:49:22.437Z,2.28
2018-11-05T05:50:22.706Z,2.28
2018-11-05T05:51:22.392Z,2.18
2018-11-05T05:52:22.376Z,2.47
2018-11-05T05:53:22.103Z,2.56
2018-11-05T05:54:22.335Z,2.66
2018-11-05T05:55:22.321Z,2.84
2018-11-05T05:56:22.295Z,2.66
2018-11-05T05:57:22.014Z,2.56
2018-11-05T05:58:21.993Z,2.84
2018-11-05T05:59:21.983Z,2.94
2018-11-05T06:00:21.960Z,2.75
2018-11-05T06:01:21.939Z,2.75
2018-11-05T06:02:22.191Z,2.94
2018-11-05T06:03:22.165Z,2.94
2018-11-05T06:04:22.158Z,2.66
2018-11-05T06:05:22.126Z,2.84
2018-11-05T06:06:22.568Z,3.22
2018-11-05T06:07:22.087Z,3.22
2018-11-05T06:08:21.800Z,3.32
2018-11-05T06:09:21.780Z,2.94
2018-11-05T06:10:22.035Z,3.22
2018-11-05T06:11:22.012Z,3.13
2018-11-05T06:12:21.994Z,2.94
2018-11-05T06:13:21.702Z,3.32
2018-11-05T06:14:21.951Z,3.32
2018-11-05T06:15:21.938Z,3.22
2018-11-05T06:16:21.646Z,3.13
2018-11-05T06:17:21.899Z,3.22
2018-11-05T06:18:21.605Z,3.32
2018-11-05T06:19:22.056Z,3.41
2018-11-05T06:20:21.837Z,3.7
2018-11-05T06:21:21.868Z,3.41
2018-11-05T06:22:21.792Z,3.41
2018-11-05T06:23:21.812Z,3.51
2018-11-05T06:24:21.503Z,3.51
2018-11-05T06:25:21.748Z,3.51
2018-11-05T06:26:21.718Z,3.6
2018-11-05T06:27:21.699Z,3.51
2018-11-05T06:28:21.798Z,3.41
2018-11-05T06:29:21.657Z,3.32
2018-11-05T06:30:21.376Z,3.41
2018-11-05T06:31:21.628Z,3.22
2018-11-05T06:32:21.330Z,3.32
2018-11-05T06:33:21.576Z,3.32
2018-11-05T06:34:21.554Z,3.22
2018-11-05T06:35:21.822Z,3.32
2018-11-05T06:36:21.520Z,3.22
2018-11-05T06:37:21.502Z,3.51
2018-11-05T06:38:21.214Z,3.32
2018-11-05T06:39:21.461Z,3.41
2018-11-05T06:40:21.452Z,3.51
2018-11-05T06:41:21.344Z,3.32
2018-11-05T06:42:21.401Z,3.32
2018-11-05T06:43:21.118Z,3.41
2018-11-05T06:44:21.649Z,3.7
2018-11-05T06:45:21.572Z,3.41
2018-11-05T06:46:21.326Z,3.51
2018-11-05T06:47:21.313Z,3.51
2018-11-05T06:48:21.279Z,3.51
2018-11-05T06:49:21.001Z,3.22
2018-11-05T06:50:21.240Z,3.32
2018-11-05T06:51:20.962Z,3.41
2018-11-05T06:52:20.941Z,3.13
2018-11-05T06:53:20.918Z,2.94
2018-11-05T06:54:21.167Z,3.03
2018-11-05T06:55:21.149Z,3.03
2018-11-05T06:56:21.127Z,3.13
2018-11-05T06:57:21.123Z,3.03
2018-11-05T06:58:20.828Z,2.94
2018-11-05T06:59:20.802Z,3.03
2018-11-05T07:00:21.049Z,2.94
2018-11-05T07:01:21.030Z,3.22
2018-11-05T07:02:20.776Z,3.22
2018-11-05T07:03:21.001Z,3.13
2018-11-05T07:04:21.022Z,3.03
2018-11-05T07:05:20.958Z,2.75
2018-11-05T07:06:20.938Z,2.66
2018-11-05T07:07:20.910Z,2.84
2018-11-05T07:08:20.894Z,3.03
2018-11-05T07:09:20.880Z,3.03
2018-11-05T07:10:20.861Z,2.94
2018-11-05T07:11:21.031Z,3.13
2018-11-05T07:12:20.553Z,3.13
2018-11-05T07:13:20.854Z,3.13
2018-11-05T07:14:20.778Z,2.84
2018-11-05T07:15:20.503Z,3.13
2018-11-05T07:16:20.479Z,3.13
2018-11-05T07:17:20.455Z,3.03
2018-11-05T07:18:20.896Z,2.94
2018-11-05T07:19:21.196Z,2.75
2018-11-05T07:20:20.668Z,2.66
2018-11-05T07:21:20.376Z,2.75
2018-11-05T07:22:20.623Z,2.84
2018-11-05T07:23:20.344Z,2.66
2018-11-05T07:24:20.321Z,2.84
2018-11-05T07:25:20.300Z,2.56
2018-11-05T07:26:20.599Z,2.37
2018-11-05T07:27:20.526Z,2.56
2018-11-05T07:28:20.505Z,2.56
2018-11-05T07:29:20.491Z,2.47
2018-11-05T07:30:20.519Z,2.47
2018-11-05T07:31:20.447Z,2.75
2018-11-05T07:32:20.434Z,2.47
2018-11-05T07:33:20.618Z,2.47
2018-11-05T07:34:20.251Z,2.37
2018-11-05T07:35:20.373Z,2.37
2018-11-05T07:36:20.356Z,2.37
2018-11-05T07:37:20.342Z,2.28
2018-11-05T07:38:20.049Z,1.99
2018-11-05T07:39:20.298Z,2.18
2018-11-05T07:40:20.017Z,2.09
2018-11-05T07:41:20.263Z,1.99
2018-11-05T07:42:20.254Z,1.71
2018-11-05T07:43:20.227Z,1.8
2018-11-05T07:44:19.935Z,1.99
2018-11-05T07:45:19.919Z,1.99
2018-11-05T07:46:20.163Z,1.71
2018-11-05T07:47:20.146Z,1.61
2018-11-05T07:48:19.861Z,1.71
2018-11-05T07:49:20.104Z,1.9
2018-11-05T07:50:19.895Z,1.61
2018-11-05T07:51:20.079Z,1.42
2018-11-05T07:52:20.062Z,1.52
2018-11-05T07:53:20.032Z,1.61
2018-11-05T07:54:20.011Z,1.32
2018-11-05T07:55:20.004Z,1.32
2018-11-05T07:56:19.757Z,1.23
2018-11-05T07:57:19.691Z,1.04
2018-11-05T07:58:19.934Z,1.04
2018-11-05T07:59:19.652Z,1.04
2018-11-05T08:00:19.902Z,1.04
2018-11-05T08:01:19.613Z,0.95
2018-11-05T08:02:19.597Z,0.66
2018-11-05T08:03:19.846Z,0.47
2018-11-05T08:04:19.823Z,0.66
2018-11-05T08:05:19.539Z,0.28
2018-11-05T08:06:19.793Z,0.28
2018-11-05T08:07:19.766Z,0.28
2018-11-05T08:08:19.866Z,0
2018-11-05T08:09:19.473Z,0.09
2018-11-05T08:10:19.452Z,0
2018-11-05T08:11:19.696Z,0.09
2018-11-05T08:12:19.413Z,0
2018-11-05T08:13:19.657Z,0
2018-11-05T08:14:19.822Z,0.19
2018-11-05T08:15:19.359Z,0
2018-11-05T08:16:19.611Z,0
2018-11-05T08:17:19.322Z,0.09
2018-11-05T08:18:19.577Z,0.28
2018-11-05T08:19:19.953Z,0
2018-11-05T08:20:19.537Z,0
2018-11-05T08:21:19.517Z,0
2018-11-05T08:22:19.500Z,0
2018-11-05T08:23:19.474Z,0
2018-11-05T08:24:19.459Z,0
2018-11-05T08:25:19.440Z,0
2018-11-05T08:26:19.161Z,0
2018-11-05T08:27:19.146Z,0
2018-11-05T08:28:19.396Z,0
2018-11-05T08:29:19.107Z,0
2018-11-05T08:30:19.357Z,0
2018-11-05T08:31:19.343Z,0
2018-11-05T08:32:19.317Z,0
2018-11-05T08:33:19.305Z,0
2018-11-05T08:34:19.147Z,0
2018-11-05T08:35:19.008Z,0
2018-11-05T08:36:18.984Z,0
2018-11-05T08:37:18.971Z,0
2018-11-05T08:38:19.216Z,0
2018-11-05T08:39:19.194Z,0
2018-11-05T08:40:19.495Z,0
2018-11-05T08:41:19.166Z,0
2018-11-05T08:42:18.883Z,0
2018-11-05T08:43:18.868Z,0
2018-11-05T08:44:19.112Z,0
2018-11-05T08:45:19.103Z,0
2018-11-05T08:46:19.084Z,0
2018-11-05T08:47:19.071Z,0
2018-11-05T08:48:19.051Z,0
2018-11-05T08:49:18.763Z,0
2018-11-05T08:50:19.372Z,0
2018-11-05T08:51:18.969Z,0.19
2018-11-05T08:52:18.977Z,0
2018-11-05T08:53:18.697Z,0.19
2018-11-05T08:54:19.195Z,0
2018-11-05T08:55:18.928Z,0.38
2018-11-05T08:56:18.919Z,0.38
2018-11-05T08:57:18.895Z,0.85
2018-11-05T08:58:18.877Z,0.38
2018-11-05T08:59:18.597Z,0.47
2018-11-05T09:00:18.842Z,0.28
2018-11-05T09:01:18.832Z,0.28
2018-11-05T09:02:18.818Z,0.09
2018-11-05T09:03:18.527Z,0.38
2018-11-05T09:04:18.551Z,0.09
2018-11-05T09:05:19.046Z,0.38
2018-11-05T09:06:18.750Z,0.47
2018-11-05T09:07:18.465Z,0.38
2018-11-05T09:08:18.713Z,0.57
2018-11-05T09:09:18.438Z,0.57
2018-11-05T09:10:19.059Z,1.04
2018-11-05T09:11:19.835Z,1.33
2018-11-05T09:12:18.383Z,1.33
2018-11-05T09:13:18.370Z,0.85
2018-11-05T09:14:18.610Z,1.04
2018-11-05T09:15:18.329Z,0.95
2018-11-05T09:16:18.380Z,1.14
2018-11-05T09:17:18.296Z,1.71
2018-11-05T09:18:18.547Z,1.81
2018-11-05T09:19:18.268Z,1.9
2018-11-05T09:20:18.246Z,1.9
2018-11-05T09:21:18.496Z,2.28
2018-11-05T09:22:18.488Z,2.28
2018-11-05T09:23:18.200Z,2.09
2018-11-05T09:24:18.447Z,2.47
2018-11-05T09:25:18.428Z,2.66
2018-11-05T09:26:18.153Z,2.19
2018-11-05T09:27:18.130Z,2.19
2018-11-05T09:28:18.393Z,2.57
2018-11-05T09:29:18.102Z,2.95
2018-11-05T09:30:18.346Z,3.61
2018-11-05T09:31:18.065Z,3.71
2018-11-05T09:32:18.325Z,4.09
2018-11-05T09:33:18.298Z,3.71
2018-11-05T09:34:18.281Z,4.19
2018-11-05T09:35:18.267Z,4.47
2018-11-05T09:36:18.248Z,4.28
2018-11-05T09:37:18.230Z,4.38
2018-11-05T09:38:18.220Z,4.38
2018-11-05T09:39:18.201Z,4.19
2018-11-05T09:40:17.918Z,4.95
2018-11-05T09:41:17.907Z,5.14
2018-11-05T09:42:17.888Z,5.43
2018-11-05T09:43:18.142Z,6.76
2018-11-05T09:44:17.852Z,6.95
2018-11-05T09:45:18.108Z,6.28
2018-11-05T09:46:18.087Z,6.09
2018-11-05T09:47:18.084Z,6.57
2018-11-05T09:48:17.793Z,6.76
2018-11-05T09:49:18.049Z,8.57
2018-11-05T09:50:18.038Z,8.57
2018-11-05T09:51:17.750Z,8.66
2018-11-05T09:52:17.988Z,10
2018-11-05T09:53:17.972Z,11.9
2018-11-05T09:54:17.696Z,14.18
2018-11-05T09:55:17.952Z,14
2018-11-05T09:56:17.932Z,13.81
2018-11-05T09:57:18.095Z,13.81
2018-11-05T09:58:17.903Z,14.37
2018-11-05T09:59:17.624Z,13.9
2018-11-05T10:00:17.606Z,14.18
2018-11-05T10:01:17.692Z,13.71
2018-11-05T10:02:17.840Z,13.62
2018-11-05T10:03:18.526Z,13.71
2018-11-05T10:04:17.652Z,14.86
2018-11-05T10:05:18.473Z,16.19
2018-11-05T10:06:17.516Z,19.24
2018-11-05T10:07:17.753Z,21.81
2018-11-05T10:08:17.497Z,22.1
2018-11-05T10:09:17.740Z,22.39
2018-11-05T10:10:17.917Z,23.82
2018-11-05T10:11:17.432Z,23.34
2018-11-05T10:12:17.412Z,23.52
2018-11-05T10:13:17.668Z,23.05
2018-11-05T10:14:17.647Z,23.43
2018-11-05T10:15:17.634Z,24.48
2018-11-05T10:16:17.711Z,24.1
2018-11-05T10:17:17.602Z,25.62
2018-11-05T10:18:17.635Z,25.43
2018-11-05T10:19:17.310Z,27.25
2018-11-05T10:20:17.286Z,28.39
2018-11-05T10:21:17.271Z,28.29
2018-11-05T10:22:17.520Z,27.91
2018-11-05T10:23:17.509Z,27.44
2018-11-05T10:24:17.271Z,27.72
2018-11-05T10:25:17.848Z,27.91
2018-11-05T10:26:17.276Z,27.72
2018-11-05T10:27:17.446Z,28.49
2018-11-05T10:28:17.429Z,29.44
2018-11-05T10:29:17.419Z,29.53
2018-11-05T10:30:17.410Z,29.25
2018-11-05T10:31:17.380Z,31.24
2018-11-05T10:32:17.498Z,31.15
2018-11-05T10:33:17.451Z,31.44
2018-11-05T10:34:17.346Z,30.96
2018-11-05T10:35:17.318Z,30.39
2018-11-05T10:36:17.304Z,30.29
2018-11-05T10:37:17.295Z,30.49
2018-11-05T10:38:17.013Z,30.58
2018-11-05T10:39:17.260Z,32.1
2018-11-05T10:40:17.400Z,32.68
2018-11-05T10:41:16.965Z,32.77
2018-11-05T10:42:17.015Z,32.29
2018-11-05T10:43:16.932Z,33.44
2018-11-05T10:44:17.313Z,34.3
2018-11-05T10:45:17.167Z,34.11
2018-11-05T10:46:16.992Z,33.34
2018-11-05T10:47:17.136Z,32.68
2018-11-05T10:48:17.131Z,32.87
2018-11-05T10:49:17.109Z,33.06
2018-11-05T10:50:17.217Z,34.3
2018-11-05T10:51:17.421Z,34.48
2018-11-05T10:52:17.052Z,34.39
2018-11-05T10:53:17.042Z,35.06
2018-11-05T10:54:17.027Z,36.2
2018-11-05T10:55:17.010Z,37.44
2018-11-05T10:56:16.746Z,39.92
2018-11-05T10:57:16.987Z,40.01
2018-11-05T10:58:16.846Z,37.44
2018-11-05T10:59:16.951Z,40.41
2018-11-05T11:00:16.938Z,40.39
2018-11-05T11:01:16.933Z,43.08
2018-11-05T11:02:16.919Z,42.58
2018-11-05T11:03:16.902Z,41.65
2018-11-05T11:04:16.958Z,41.56
2018-11-05T11:05:16.601Z,42.89
2018-11-05T11:06:16.884Z,44.8
2018-11-05T11:07:16.565Z,45.08
2018-11-05T11:08:16.821Z,42.89
2018-11-05T11:09:16.797Z,41.75
2018-11-05T11:10:16.784Z,40.89
2018-11-05T11:11:16.773Z,43.27
2018-11-05T11:12:16.757Z,45.65
2018-11-05T11:13:16.742Z,44.8
2018-11-05T11:14:16.465Z,42.89
2018-11-05T11:15:16.886Z,41.75
2018-11-05T11:16:16.695Z,40.7
2018-11-05T11:17:16.684Z,40.6
2018-11-05T11:18:16.675Z,41.75
2018-11-05T11:19:16.394Z,40.6
2018-11-05T11:20:16.642Z,39.94
2018-11-05T11:21:16.626Z,40.53
2018-11-05T11:22:16.424Z,40.53
2018-11-05T11:23:16.328Z,43.29
2018-11-05T11:24:16.575Z,44.25
2018-11-05T11:25:16.562Z,45.01
2018-11-05T11:26:16.289Z,46.92
2018-11-05T11:27:16.272Z,45.2
2018-11-05T11:28:16.741Z,49.3
2018-11-05T11:29:16.867Z,50.16
2018-11-05T11:30:16.263Z,49.68
2018-11-05T11:31:16.489Z,50.07
2018-11-05T11:32:16.462Z,51.78
2018-11-05T11:33:16.451Z,56.46
2018-11-05T11:34:16.434Z,56.26
2018-11-05T11:35:16.422Z,53.12
2018-11-05T11:36:16.406Z,50.07
2018-11-05T11:37:16.800Z,49.21
2018-11-05T11:38:16.380Z,50.18
2018-11-05T11:39:16.362Z,52.57
2018-11-05T11:40:16.352Z,54.57
2018-11-05T11:41:16.070Z,57.24
2018-11-05T11:42:16.389Z,55.72
2018-11-05T11:43:16.306Z,53.62
2018-11-05T11:44:16.178Z,59.53
2018-11-05T11:45:16.280Z,60.11
2018-11-05T11:46:15.997Z,60.02
2018-11-05T11:47:16.254Z,62.59
2018-11-05T11:48:16.247Z,59.38
2018-11-05T11:49:16.226Z,61.95
2018-11-05T11:50:16.215Z,70.83
2018-11-05T11:51:16.211Z,70.45
2018-11-05T11:52:15.933Z,71.41
2018-11-05T11:53:16.397Z,69.31
2018-11-05T11:54:15.893Z,69.21
2018-11-05T11:55:16.178Z,74.49
2018-11-05T11:56:16.139Z,74.02
2018-11-05T11:57:15.854Z,78.83
2018-11-05T11:58:16.102Z,82.75
2018-11-05T11:59:15.834Z,86.86
2018-11-05T12:00:16.116Z,80.65
2018-11-05T12:01:15.803Z,87.95
2018-11-05T12:02:16.213Z,92.35
2018-11-05T12:03:16.049Z,95.36
2018-11-05T12:04:16.033Z,99.99
2018-11-05T12:05:16.532Z,99.99
2018-11-05T12:06:15.748Z,99.99
2018-11-05T12:07:16.011Z,99.99
2018-11-05T12:08:15.994Z,99.99
2018-11-05T12:09:15.983Z,99.99
2018-11-05T12:10:15.710Z,99.99
2018-11-05T12:11:15.966Z,99.99
2018-11-05T12:12:15.698Z,99.99
2018-11-05T12:13:15.938Z,99.99
2018-11-05T12:14:16.072Z,99.99
2018-11-05T12:15:15.656Z,99.99
2018-11-05T12:16:15.916Z,99.99
2018-11-05T12:17:15.900Z,99.99
2018-11-05T12:18:15.627Z,99.99
2018-11-05T12:19:15.881Z,99.99
2018-11-05T12:20:15.923Z,99.99
2018-11-05T12:21:15.604Z,99.99
2018-11-05T12:22:15.859Z,99.99
2018-11-05T12:23:15.588Z,99.99
2018-11-05T12:24:15.840Z,99.99
2018-11-05T12:25:15.830Z,99.99
2018-11-05T12:26:15.822Z,99.99
2018-11-05T12:27:15.812Z,99.99
2018-11-05T12:28:15.804Z,99.99
2018-11-05T12:29:15.801Z,99.99
2018-11-05T12:30:15.792Z,99.99
2018-11-05T12:31:15.797Z,99.99
2018-11-05T12:32:15.551Z,99.99
2018-11-05T12:33:15.504Z,99.99
2018-11-05T12:34:15.770Z,99.99
2018-11-05T12:35:15.757Z,99.99
2018-11-05T12:36:15.745Z,99.99
2018-11-05T12:37:15.476Z,99.99
2018-11-05T12:38:15.466Z,99.99
2018-11-05T12:39:15.458Z,99.99
2018-11-05T12:40:15.468Z,99.99
2018-11-05T12:41:15.449Z,99.99
2018-11-05T12:42:15.702Z,99.99
2018-11-05T12:43:15.692Z,99.99
2018-11-05T12:44:15.422Z,99.99
2018-11-05T12:45:15.423Z,99.99
2018-11-05T12:46:15.668Z,99.99
2018-11-05T12:47:15.663Z,99.99
2018-11-05T12:48:15.659Z,99.99
2018-11-05T12:49:15.646Z,99.99
2018-11-05T12:50:15.634Z,99.99
2018-11-05T12:51:15.365Z,99.99
2018-11-05T12:52:15.625Z,99.99
2018-11-05T12:53:15.613Z,99.99
2018-11-05T12:54:15.341Z,99.99
2018-11-05T12:55:15.602Z,99.99
2018-11-05T12:56:15.592Z,99.99
2018-11-05T12:57:15.592Z,99.99
2018-11-05T12:58:15.313Z,99.99
2018-11-05T12:59:15.572Z,99.99
2018-11-05T13:00:15.570Z,99.99
2018-11-05T13:01:15.569Z,99.99
2018-11-05T13:02:15.553Z,99.99
2018-11-05T13:03:15.552Z,99.99
2018-11-05T13:04:15.778Z,99.99
2018-11-05T13:05:15.269Z,99.99
2018-11-05T13:06:15.531Z,99.99
2018-11-05T13:07:15.569Z,99.99
2018-11-05T13:08:15.252Z,99.99
2018-11-05T13:09:15.249Z,99.99
2018-11-05T13:10:15.515Z,99.99
2018-11-05T13:11:15.236Z,99.99
2018-11-05T13:12:15.233Z,99.99
2018-11-05T13:13:15.494Z,99.99
2018-11-05T13:14:15.488Z,99.99
2018-11-05T13:15:15.274Z,99.99
2018-11-05T13:16:15.475Z,99.99
2018-11-05T13:17:15.476Z,99.99